Terminal Aerodrome Forecast
Issued by NWS

Home | Current Version | Previous Version | Text Only | Print | Product List | Glossary On
Versions: 1 2 3 4 5 6 7 8 9 10 11 12 13 14 15 16
000
FTUS45 KGGW 250316 AAA
TAFOLF
TAF AMD
KOLF 250316Z 2503/2524 VRB04KT 5SM -SN SCT025 OVC035
      TEMPO 2503/2505 2SM -SN OVC025
     FM250800 33004KT P6SM OVC015
     FM251700 23006KT 2SM -SN SCT003 OVC010
     FM252200 27010KT P6SM BKN020=

USA.gov is the U.S. government's official web portal to all federal, state and local government web resources and services.